Nearby METAR Reports

 

EGQL - Leuchars Raf, United Kingdom
Distance from station: SW 11mi, 17km
Updated: 14/12/2017 21:50
Clear
Clear
 Wind from NW
Wind: NW 5 mph , 7 km/h
Temperature: -2°C
Wind Chill: -6°C
Dew Point: -2°C
Humidity: 100%
Barometer: 986 hPa
Summary: Clear
Visibility: greater than 7 miles , 10 km
2017/12/14 21:50 EGQL 142150Z 31004KT CAVOK M02/M02 Q0986 BLACKBLU
EGPN - Dundee/Riverside, United Kingdom
Distance from station: WSW 13mi, 20km
Updated: 14/12/2017 20:50
NOT Current
Few Clouds
Few Clouds
 Wind from calm
Wind: Calm
Temperature: -1°C
Dew Point: -1°C
Humidity: 100%
Barometer: 985 hPa
Clouds: Few Clouds
Visibility: 6 miles , 10 km
Cloud details: Few Clouds 91 m
2017/12/14 20:50 EGPN 142050Z 00000KT 9999 FEW003 M01/M01 Q0985
 
EGPH - Edinburgh Airpor, United Kingdom
Distance from station: SSW 46mi, 74km
Updated: 14/12/2017 22:20
Mist, Clear
Mist, Clear
 Wind from SW
Wind: SW 5 mph , 7 km/h
Temperature: -1°C
Wind Chill: -4°C
Dew Point: -1°C
Humidity: 100%
Barometer: 987 hPa
Summary: Mist
Clouds: Clear
Visibility: 1 mile , 2 km
2017/12/14 22:20 EGPH 142220Z AUTO 23004KT 1900 BR NCD M01/M01 Q0987
EGPD - Aberdeen/Dyce, United Kingdom
Distance from station: NNE 51mi, 82km
Updated: 14/12/2017 22:20
Nearby showers, Partly cloudy
Nearby showers, Partly cloudy
 Wind from WNW
Wind: WNW 14 mph , 22 km/h
Temperature: 1°C
Wind Chill: -4°C
Dew Point: -2°C
Humidity: 81%
Barometer: 987 hPa
Summary: Nearby Showers
Clouds: Partly cloudy
Visibility: 6 miles , 10 km
Cloud details: Few Clouds 1036 m
Partly cloudy 1372 m
2017/12/14 22:20 EGPD 142220Z 30012KT 9999 VCSH FEW034 SCT045 01/M02 Q0987